createdAt,value
2018-04-28T00:00:45.971Z,50.90
2018-04-28T00:03:13.439Z,51.10
2018-04-28T00:05:40.950Z,51.10
2018-04-28T00:08:08.475Z,51.20
2018-04-28T00:10:36.180Z,51.40
2018-04-28T00:13:04.485Z,52.50
2018-04-28T00:15:31.984Z,52.40
2018-04-28T00:17:59.459Z,52.60
2018-04-28T00:20:26.947Z,52.10
2018-04-28T00:23:11.164Z,52.00
2018-04-28T00:25:48.423Z,52.20
2018-04-28T00:28:19.840Z,52.60
2018-04-28T00:33:41.007Z,53.20
2018-04-28T00:36:21.159Z,53.50
2018-04-28T00:38:50.411Z,53.60
2018-04-28T00:41:17.884Z,53.30
2018-04-28T00:43:45.351Z,53.20
2018-04-28T00:46:18.726Z,53.40
2018-04-28T00:48:58.107Z,53.90
2018-04-28T00:51:32.392Z,53.40
2018-04-28T00:54:17.107Z,54.30
2018-04-28T00:57:03.430Z,54.30
2018-04-28T00:59:30.915Z,54.40
2018-04-28T01:01:59.363Z,54.40
2018-04-28T01:04:28.336Z,54.90
2018-04-28T01:06:55.827Z,54.80
2018-04-28T01:09:27.163Z,53.90
2018-04-28T01:11:54.911Z,53.90
2018-04-28T01:14:39.177Z,53.60
2018-04-28T01:17:10.847Z,52.50
2018-04-28T01:19:43.171Z,52.40
2018-04-28T01:22:10.741Z,52.30
2018-04-28T01:24:39.838Z,52.10
2018-04-28T01:27:12.951Z,52.20
2018-04-28T01:29:49.995Z,51.70
2018-04-28T01:32:27.331Z,52.10
2018-04-28T01:35:01.639Z,52.10
2018-04-28T01:37:44.895Z,52.20
2018-04-28T01:40:13.133Z,52.10
2018-04-28T01:42:48.008Z,52.10
2018-04-28T01:48:20.684Z,51.90
2018-04-28T01:51:10.156Z,52.00
2018-04-28T01:57:03.452Z,52.40
2018-04-28T02:00:01.522Z,52.40
2018-04-28T02:02:34.351Z,53.40
2018-04-28T02:05:15.344Z,53.60
2018-04-28T02:07:46.542Z,53.70
2018-04-28T02:10:14.031Z,53.70
2018-04-28T02:12:51.115Z,53.70
2018-04-28T02:15:25.463Z,53.70
2018-04-28T02:18:02.652Z,53.50
2018-04-28T02:20:38.495Z,53.00
2018-04-28T02:23:16.222Z,53.00
2018-04-28T02:25:45.599Z,52.90
2018-04-28T02:28:23.615Z,52.00
2018-04-28T02:33:54.472Z,51.90
2018-04-28T02:36:27.576Z,52.90
2018-04-28T02:38:55.964Z,53.00
2018-04-28T02:41:26.087Z,53.20
2018-04-28T02:44:02.715Z,53.30
2018-04-28T02:46:45.855Z,53.50
2018-04-28T02:49:28.220Z,53.40
2018-04-28T02:52:09.133Z,53.50
2018-04-28T02:54:52.217Z,53.70
2018-04-28T02:57:56.077Z,53.80
2018-04-28T03:00:29.286Z,53.90
2018-04-28T03:02:57.577Z,54.10
2018-04-28T03:05:28.783Z,54.30
2018-04-28T03:08:01.492Z,54.60
2018-04-28T03:10:45.411Z,54.50
2018-04-28T03:13:15.800Z,54.50
2018-04-28T03:15:43.276Z,54.80
2018-04-28T03:18:10.819Z,55.20
2018-04-28T03:20:43.922Z,55.40
2018-04-28T03:23:12.156Z,56.00
2018-04-28T03:25:48.499Z,56.00
2018-04-28T03:28:24.540Z,56.50
2018-04-28T03:30:55.835Z,56.90
2018-04-28T03:33:40.032Z,57.20
2018-04-28T03:36:13.363Z,57.60
2018-04-28T03:38:41.783Z,57.30
2018-04-28T03:41:19.962Z,57.30
2018-04-28T03:43:47.448Z,57.20
2018-04-28T03:46:22.517Z,57.60
2018-04-28T03:48:50.654Z,57.20
2018-04-28T03:51:19.708Z,57.20
2018-04-28T03:54:14.091Z,57.20
2018-04-28T03:57:00.400Z,57.10
2018-04-28T03:59:39.995Z,57.10
2018-04-28T04:02:19.125Z,57.30
2018-04-28T04:04:56.098Z,57.10
2018-04-28T04:07:25.956Z,57.10
2018-04-28T04:09:58.082Z,57.70
2018-04-28T04:12:39.911Z,56.80
2018-04-28T04:15:16.096Z,56.70
2018-04-28T04:17:51.165Z,56.60
2018-04-28T04:20:35.083Z,56.40
2018-04-28T04:23:05.414Z,56.50
2018-04-28T04:29:04.935Z,56.40
2018-04-28T04:31:55.770Z,56.40
2018-04-28T04:34:45.916Z,56.20
2018-04-28T04:37:16.039Z,56.00
2018-04-28T04:39:54.239Z,55.80
2018-04-28T04:42:34.414Z,55.60
2018-04-28T04:45:04.622Z,55.50
2018-04-28T04:47:36.494Z,55.20
2018-04-28T04:50:15.691Z,55.10
2018-04-28T04:52:48.895Z,55.20
2018-04-28T04:58:31.485Z,54.60
2018-04-28T05:01:06.719Z,54.70
2018-04-28T05:03:38.817Z,54.60
2018-04-28T05:06:17.126Z,54.70
2018-04-28T05:08:56.467Z,54.80
2018-04-28T05:11:25.915Z,54.80
2018-04-28T05:20:12.427Z,54.70
2018-04-28T05:22:49.399Z,54.80
2018-04-28T05:25:31.496Z,54.70
2018-04-28T05:28:05.712Z,54.70
2018-04-28T05:30:43.876Z,54.60
2018-04-28T05:36:16.510Z,54.40
2018-04-28T05:38:52.643Z,54.40
2018-04-28T05:41:32.010Z,54.40
2018-04-28T05:44:06.489Z,54.20
2018-04-28T05:46:50.411Z,53.40
2018-04-28T05:49:29.799Z,53.40
2018-04-28T05:52:03.210Z,53.20
2018-04-28T05:57:45.757Z,52.80
2018-04-28T06:00:20.324Z,52.90
2018-04-28T06:03:05.940Z,53.30
2018-04-28T06:09:09.755Z,54.40
2018-04-28T06:11:55.643Z,54.60
2018-04-28T06:14:33.101Z,54.60
2018-04-28T06:17:10.150Z,54.90
2018-04-28T06:19:44.210Z,54.70
2018-04-28T06:22:12.584Z,54.80
2018-04-28T06:24:40.157Z,54.70
2018-04-28T06:27:07.636Z,54.40
2018-04-28T06:29:35.116Z,53.20
2018-04-28T06:32:03.395Z,52.90
2018-04-28T06:34:30.899Z,52.60
2018-04-28T06:36:59.903Z,52.20
2018-04-28T06:39:29.201Z,52.10
2018-04-28T06:41:56.723Z,51.80
2018-04-28T06:44:24.207Z,51.50
2018-04-28T06:46:52.464Z,51.30
2018-04-28T06:49:19.949Z,51.20
2018-04-28T06:51:48.191Z,50.60
2018-04-28T06:54:15.659Z,50.50
2018-04-28T06:56:43.127Z,50.30
2018-04-28T06:59:11.845Z,50.10
2018-04-28T07:01:39.320Z,50.00
2018-04-28T07:04:06.808Z,49.90
2018-04-28T07:06:34.299Z,49.80
2018-04-28T07:09:01.777Z,49.70
2018-04-28T07:11:29.511Z,49.80
2018-04-28T07:13:57.824Z,49.40
2018-04-28T07:16:25.338Z,49.40
2018-04-28T07:18:53.660Z,49.40
2018-04-28T07:21:21.167Z,49.20
2018-04-28T07:23:49.451Z,48.80
2018-04-28T07:26:16.930Z,48.80
2018-04-28T07:28:44.419Z,48.60
2018-04-28T07:31:12.138Z,48.50
2018-04-28T07:33:41.260Z,48.00
2018-04-28T07:36:09.005Z,47.90
2018-04-28T07:38:36.535Z,47.60
2018-04-28T07:41:04.095Z,47.30
2018-04-28T07:43:31.531Z,46.80
2018-04-28T07:45:59.022Z,46.50
2018-04-28T07:48:26.560Z,46.30
2018-04-28T07:50:54.064Z,46.00
2018-04-28T07:53:21.639Z,45.80
2018-04-28T07:55:49.117Z,45.60
2018-04-28T07:58:16.669Z,45.40
2018-04-28T08:00:44.199Z,45.40
2018-04-28T08:03:11.707Z,45.20
2018-04-28T08:05:40.009Z,44.70
2018-04-28T08:08:07.503Z,44.50
2018-04-28T08:10:36.356Z,44.00
2018-04-28T08:13:04.862Z,43.40
2018-04-28T08:15:32.370Z,43.20
2018-04-28T08:17:59.870Z,43.00
2018-04-28T08:20:27.352Z,43.00
2018-04-28T08:22:55.619Z,42.60
2018-04-28T08:25:23.118Z,42.30
2018-04-28T08:27:50.907Z,42.10
2018-04-28T08:30:18.520Z,42.10
2018-04-28T08:32:56.056Z,41.80
2018-04-28T08:35:24.291Z,41.10
2018-04-28T08:37:51.785Z,40.90
2018-04-28T08:40:20.267Z,40.40
2018-04-28T08:42:48.017Z,40.30
2018-04-28T08:45:16.436Z,40.50
2018-04-28T08:47:44.087Z,40.40
2018-04-28T08:50:12.586Z,39.70
2018-04-28T08:52:40.071Z,39.70
2018-04-28T08:55:08.241Z,39.40
2018-04-28T08:57:35.801Z,39.10
2018-04-28T09:00:14.992Z,38.90
2018-04-28T09:02:42.526Z,38.70
2018-04-28T09:05:09.999Z,38.30
2018-04-28T09:07:38.201Z,38.30
2018-04-28T09:10:06.313Z,38.70
2018-04-28T09:12:34.317Z,39.10
2018-04-28T09:15:03.062Z,39.30
2018-04-28T09:17:30.539Z,39.60
2018-04-28T09:19:59.343Z,39.70
2018-04-28T09:22:52.689Z,40.40
2018-04-28T09:25:21.294Z,39.90
2018-04-28T09:27:49.791Z,40.10
2018-04-28T09:30:17.288Z,39.90
2018-04-28T09:35:55.048Z,40.00
2018-04-28T09:38:23.302Z,40.30
2018-04-28T09:40:50.779Z,40.30
2018-04-28T09:43:18.248Z,40.00
2018-04-28T09:45:45.767Z,39.90
2018-04-28T09:48:13.234Z,39.90
2018-04-28T09:50:40.993Z,39.80
2018-04-28T09:53:08.474Z,39.80
2018-04-28T09:55:36.747Z,40.00
2018-04-28T09:58:06.713Z,39.90
2018-04-28T10:00:35.419Z,39.90
2018-04-28T10:03:06.558Z,39.80
2018-04-28T10:05:40.176Z,39.80
2018-04-28T10:08:08.450Z,39.60
2018-04-28T10:10:35.975Z,39.50
2018-04-28T10:13:35.239Z,39.10
2018-04-28T10:16:02.790Z,39.00
2018-04-28T10:18:31.275Z,39.20
2018-04-28T10:20:59.815Z,39.30
2018-04-28T10:23:33.478Z,39.00
2018-04-28T10:26:01.645Z,38.90
2018-04-28T10:28:29.214Z,38.70
2018-04-28T10:30:57.560Z,38.60
2018-04-28T10:33:33.107Z,38.60
2018-04-28T10:36:03.964Z,38.40
2018-04-28T10:38:32.491Z,38.30
2018-04-28T10:41:00.017Z,38.40
2018-04-28T10:43:30.287Z,38.30
2018-04-28T10:45:58.564Z,38.10
2018-04-28T10:48:26.990Z,38.10
2018-04-28T10:50:56.380Z,37.90
2018-04-28T10:53:24.858Z,37.90
2018-04-28T10:55:53.111Z,37.80
2018-04-28T10:58:21.345Z,37.70
2018-04-28T11:00:48.835Z,37.70
2018-04-28T11:03:16.325Z,37.80
2018-04-28T11:05:43.869Z,37.80
2018-04-28T11:08:14.558Z,37.80
2018-04-28T11:10:43.870Z,37.30
2018-04-28T11:13:16.732Z,37.10
2018-04-28T11:15:45.088Z,37.20
2018-04-28T11:18:13.543Z,37.30
2018-04-28T11:20:42.328Z,37.20
2018-04-28T11:23:10.583Z,36.90
2018-04-28T11:25:38.129Z,36.90
2018-04-28T11:28:06.295Z,36.80
2018-04-28T11:30:33.792Z,36.70
2018-04-28T11:33:01.381Z,36.60
2018-04-28T11:35:32.566Z,36.60
2018-04-28T11:38:02.554Z,36.40
2018-04-28T11:40:30.679Z,36.20
2018-04-28T11:42:58.167Z,36.20
2018-04-28T11:45:26.595Z,36.10
2018-04-28T11:47:54.097Z,35.90
2018-04-28T11:50:22.846Z,35.90
2018-04-28T11:52:51.930Z,35.90
2018-04-28T11:55:23.600Z,35.90
2018-04-28T11:57:51.160Z,35.70
2018-04-28T12:00:19.756Z,35.50
2018-04-28T12:02:49.362Z,35.80
2018-04-28T12:05:19.284Z,36.00
2018-04-28T12:07:47.502Z,36.00
2018-04-28T12:10:16.444Z,35.80
2018-04-28T12:12:46.655Z,35.80
2018-04-28T12:15:14.732Z,35.70
2018-04-28T12:17:42.267Z,35.80
2018-04-28T12:20:13.848Z,35.60
2018-04-28T12:22:43.854Z,35.60
2018-04-28T12:25:12.627Z,35.60
2018-04-28T12:27:41.800Z,35.60
2018-04-28T12:30:09.300Z,35.50
2018-04-28T12:32:37.082Z,35.60
2018-04-28T12:35:04.982Z,35.60
2018-04-28T12:37:32.493Z,35.60
2018-04-28T12:40:00.206Z,35.60
2018-04-28T12:42:27.695Z,35.50
2018-04-28T12:44:55.887Z,35.50
2018-04-28T12:47:23.425Z,35.50
2018-04-28T12:49:51.335Z,35.40
2018-04-28T12:52:18.913Z,35.50
2018-04-28T12:54:48.864Z,35.80
2018-04-28T12:57:17.136Z,35.90
2018-04-28T12:59:45.474Z,35.90
2018-04-28T13:02:14.920Z,36.40
2018-04-28T13:04:43.408Z,36.50
2018-04-28T13:07:10.887Z,37.00
2018-04-28T13:09:40.015Z,36.30
2018-04-28T13:12:08.496Z,36.10
2018-04-28T13:14:36.766Z,36.30
2018-04-28T13:17:04.328Z,36.20
2018-04-28T13:19:32.662Z,36.00
2018-04-28T13:22:00.490Z,35.90
2018-04-28T13:24:42.842Z,36.00
2018-04-28T13:27:10.591Z,36.10
2018-04-28T13:29:38.299Z,36.60
2018-04-28T13:32:05.852Z,36.70
2018-04-28T13:34:33.621Z,36.60
2018-04-28T13:37:01.851Z,36.60
2018-04-28T13:39:29.372Z,36.70
2018-04-28T13:41:57.720Z,37.00
2018-04-28T13:44:26.206Z,37.10
2018-04-28T13:46:57.040Z,37.00
2018-04-28T13:49:24.555Z,36.90
2018-04-28T13:51:54.327Z,37.10
2018-04-28T13:54:37.491Z,37.70
2018-04-28T13:57:07.648Z,37.50
2018-04-28T13:59:35.371Z,37.70
2018-04-28T14:02:05.224Z,37.80
2018-04-28T14:04:33.691Z,37.90
2018-04-28T14:07:02.211Z,37.60
2018-04-28T14:09:31.027Z,37.20
2018-04-28T14:12:01.598Z,36.60
2018-04-28T14:14:29.837Z,35.20
2018-04-28T14:16:58.951Z,33.70
2018-04-28T14:19:29.146Z,33.00
2018-04-28T14:21:57.332Z,32.80
2018-04-28T14:24:26.674Z,32.40
2018-04-28T14:26:55.310Z,32.30
2018-04-28T14:29:22.765Z,32.00
2018-04-28T14:31:51.760Z,31.30
2018-04-28T14:34:19.903Z,30.80
2018-04-28T14:36:52.469Z,31.80
2018-04-28T14:39:20.177Z,31.90
2018-04-28T14:41:49.600Z,32.00
2018-04-28T14:44:23.615Z,31.90
2018-04-28T14:46:53.650Z,31.80
2018-04-28T14:49:31.836Z,31.70
2018-04-28T14:51:59.559Z,31.80
2018-04-28T14:54:28.462Z,32.00
2018-04-28T14:56:55.983Z,32.20
2018-04-28T14:59:23.482Z,32.50
2018-04-28T15:01:51.081Z,32.50
2018-04-28T15:04:18.560Z,32.50
2018-04-28T15:06:46.095Z,32.50
2018-04-28T15:09:13.804Z,32.40
2018-04-28T15:11:41.289Z,32.30
2018-04-28T15:14:23.410Z,31.50
2018-04-28T15:16:52.294Z,31.80
2018-04-28T15:19:20.686Z,31.70
2018-04-28T15:21:48.718Z,31.60
2018-04-28T15:24:16.217Z,31.10
2018-04-28T15:26:45.461Z,31.30
2018-04-28T15:29:13.005Z,31.50
2018-04-28T15:31:40.512Z,31.90
2018-04-28T15:34:07.998Z,32.30
2018-04-28T15:36:36.784Z,32.50
2018-04-28T15:39:07.942Z,32.60
2018-04-28T15:41:36.268Z,32.60
2018-04-28T15:44:14.386Z,32.50
2018-04-28T15:46:42.806Z,32.00
2018-04-28T15:49:11.172Z,31.50
2018-04-28T15:51:41.797Z,31.60
2018-04-28T15:54:09.755Z,31.40
2018-04-28T15:56:38.699Z,31.80
2018-04-28T15:59:07.545Z,31.00
2018-04-28T16:01:36.042Z,30.60
2018-04-28T16:04:03.835Z,30.00
2018-04-28T16:06:32.211Z,30.00
2018-04-28T16:09:00.731Z,30.20
2018-04-28T16:11:29.834Z,30.10
2018-04-28T16:13:58.190Z,30.00
2018-04-28T16:16:25.668Z,30.30
2018-04-28T16:18:54.667Z,30.30
2018-04-28T16:21:22.237Z,30.40
2018-04-28T16:23:52.158Z,30.60
2018-04-28T16:26:20.759Z,31.10
2018-04-28T16:28:49.277Z,31.80
2018-04-28T16:31:18.712Z,31.80
2018-04-28T16:33:46.534Z,32.10
2018-04-28T16:36:14.887Z,32.30
2018-04-28T16:38:44.287Z,32.40
2018-04-28T16:43:46.095Z,32.40
2018-04-28T16:46:14.630Z,32.60
2018-04-28T16:48:49.696Z,33.00
2018-04-28T16:51:18.726Z,33.00
2018-04-28T16:59:00.358Z,33.30
2018-04-28T17:01:28.230Z,33.70
2018-04-28T17:09:22.628Z,34.90
2018-04-28T17:11:57.686Z,35.20
2018-04-28T17:14:25.862Z,35.30
2018-04-28T17:16:55.239Z,35.70
2018-04-28T17:19:41.852Z,35.80
2018-04-28T17:22:18.547Z,36.10
2018-04-28T17:24:47.632Z,36.20
2018-04-28T17:34:43.098Z,36.70
2018-04-28T17:40:07.119Z,36.80
2018-04-28T17:42:41.729Z,36.70
2018-04-28T17:51:07.796Z,37.30
2018-04-28T17:53:54.925Z,37.60
2018-04-28T18:04:31.506Z,38.30
2018-04-28T18:07:07.385Z,38.40
2018-04-28T18:12:24.696Z,38.70
2018-04-28T18:17:31.224Z,38.80
2018-04-28T18:20:03.864Z,38.80
2018-04-28T18:22:31.378Z,38.80
2018-04-28T18:33:23.736Z,38.50
2018-04-28T18:35:53.779Z,38.40
2018-04-28T18:41:18.796Z,38.30
2018-04-28T18:47:10.205Z,38.10
2018-04-28T18:49:44.126Z,38.10
2018-04-28T18:54:47.879Z,37.90
2018-04-28T18:57:16.216Z,38.00
2018-04-28T18:59:44.444Z,38.00
2018-04-28T19:02:15.314Z,38.10
2018-04-28T19:04:42.836Z,38.30
2018-04-28T19:07:10.541Z,38.40
2018-04-28T19:09:38.286Z,38.20
2018-04-28T19:12:06.303Z,38.60
2018-04-28T19:14:34.653Z,38.90
2018-04-28T19:17:02.945Z,39.00
2018-04-28T19:22:02.544Z,39.30
2018-04-28T19:24:30.088Z,39.50
2018-04-28T19:26:57.633Z,39.50
2018-04-28T19:29:25.139Z,39.50
2018-04-28T19:31:52.699Z,39.60
2018-04-28T19:34:20.189Z,39.70
2018-04-28T19:36:47.683Z,39.80
2018-04-28T19:39:16.238Z,39.80
2018-04-28T19:41:44.811Z,39.90
2018-04-28T19:44:18.202Z,40.10
2018-04-28T19:46:48.491Z,40.30
2018-04-28T19:49:16.951Z,40.10
2018-04-28T19:51:51.364Z,40.30
2018-04-28T19:54:20.078Z,40.50
2018-04-28T19:59:21.388Z,41.10
2018-04-28T20:01:59.768Z,41.00
2018-04-28T20:04:29.618Z,41.20
2018-04-28T20:06:57.869Z,41.70
2018-04-28T20:09:31.036Z,41.60
2018-04-28T20:12:00.172Z,41.80
2018-04-28T20:17:03.351Z,42.20
2018-04-28T20:19:34.085Z,42.40
2018-04-28T20:22:14.323Z,42.60
2018-04-28T20:24:54.575Z,42.90
2018-04-28T20:27:27.138Z,43.00
2018-04-28T20:29:55.704Z,43.20
2018-04-28T20:37:32.230Z,43.80
2018-04-28T20:39:59.792Z,43.60
2018-04-28T20:42:27.321Z,43.70
2018-04-28T20:44:55.534Z,44.00
2018-04-28T20:47:23.260Z,44.00
2018-04-28T20:49:51.059Z,44.30
2018-04-28T20:52:19.263Z,44.40
2018-04-28T20:54:46.812Z,44.40
2018-04-28T20:57:14.311Z,44.50
2018-04-28T20:59:41.889Z,44.60
2018-04-28T21:02:10.311Z,44.90
2018-04-28T21:04:39.520Z,45.50
2018-04-28T21:07:07.966Z,45.50
2018-04-28T21:09:38.080Z,45.60
2018-04-28T21:12:05.684Z,45.70
2018-04-28T21:14:34.764Z,45.90
2018-04-28T21:17:02.303Z,46.10
2018-04-28T21:19:31.287Z,46.30
2018-04-28T21:21:59.156Z,46.60
2018-04-28T21:24:29.645Z,46.70
2018-04-28T21:26:57.298Z,46.70
2018-04-28T21:31:56.525Z,47.10
2018-04-28T21:34:25.126Z,47.10
2018-04-28T21:36:52.672Z,47.30
2018-04-28T21:39:20.647Z,47.40
2018-04-28T21:41:48.188Z,47.60
2018-04-28T21:44:15.895Z,47.60
2018-04-28T21:46:43.414Z,47.60
2018-04-28T21:49:10.892Z,47.80
2018-04-28T21:51:39.168Z,48.10
2018-04-28T21:54:11.975Z,48.00
2018-04-28T21:56:40.438Z,48.20
2018-04-28T21:59:09.606Z,48.40
2018-04-28T22:01:37.105Z,48.40
2018-04-28T22:04:04.772Z,48.50
2018-04-28T22:06:34.811Z,48.40
2018-04-28T22:09:02.427Z,48.30
2018-04-28T22:11:29.956Z,48.40
2018-04-28T22:13:57.663Z,48.40
2018-04-28T22:16:25.192Z,48.50
2018-04-28T22:18:52.676Z,48.50
2018-04-28T22:21:20.217Z,48.60
2018-04-28T22:23:47.878Z,48.60
2018-04-28T22:26:15.422Z,48.70
2018-04-28T22:28:43.669Z,48.90
2018-04-28T22:31:12.491Z,48.80
2018-04-28T22:33:39.970Z,48.90
2018-04-28T22:36:07.710Z,49.00
2018-04-28T22:38:35.221Z,49.10
2018-04-28T22:41:02.727Z,49.20
2018-04-28T22:43:30.290Z,49.20
2018-04-28T22:45:57.949Z,49.20
2018-04-28T22:48:25.495Z,49.30
2018-04-28T22:50:53.092Z,49.40
2018-04-28T22:53:20.631Z,49.50
2018-04-28T22:55:48.112Z,49.50
2018-04-28T22:58:15.599Z,49.40
2018-04-28T23:00:43.082Z,49.50
2018-04-28T23:03:10.847Z,49.60
2018-04-28T23:05:39.320Z,49.80
2018-04-28T23:08:07.807Z,50.00
2018-04-28T23:10:36.059Z,49.80
2018-04-28T23:13:03.686Z,49.90
2018-04-28T23:15:31.805Z,49.80
2018-04-28T23:17:59.313Z,50.10
2018-04-28T23:20:26.848Z,50.10
2018-04-28T23:23:04.308Z,50.20
2018-04-28T23:25:31.811Z,50.30
2018-04-28T23:27:59.523Z,50.40
2018-04-28T23:30:27.336Z,50.60
2018-04-28T23:32:55.057Z,50.90
2018-04-28T23:35:22.532Z,51.10
2018-04-28T23:37:50.284Z,51.20
2018-04-28T23:40:18.551Z,51.60
2018-04-28T23:42:46.395Z,51.40
2018-04-28T23:45:13.911Z,52.00
2018-04-28T23:47:41.410Z,51.50
2018-04-28T23:50:08.924Z,51.60
2018-04-28T23:52:36.583Z,51.70
2018-04-28T23:55:04.080Z,51.80
2018-04-28T23:57:31.564Z,51.80
2018-04-28T23:59:59.043Z,52.00
